Terminal Aerodrome Forecast
Issued by NWS

Home | Current Version | Previous Version | Text Only | Print | Product List | Glossary On
Versions: 1 2 3 4 5 6 7 8 9 10 11 12 13 14
000
FTUS45 KABQ 220500 RRA
TAFSAF
TAF
KSAF 220547Z 2206/2306 13006KT P6SM BKN150
     FM221500 12014G20KT P6SM FEW070 SCT150
     FM222100 12011G20KT P6SM SCT070
     FM230000 13012KT P6SM VCTS BKN070CB=

USA.gov is the U.S. government's official web portal to all federal, state and local government web resources and services.